createdAt,value
2023-04-08T00:03:56.062Z,78.92
2023-04-08T00:09:17.930Z,78.67
2023-04-08T00:14:41.752Z,78.78
2023-04-08T00:20:05.872Z,78.95
2023-04-08T00:25:27.920Z,78.85
2023-04-08T00:30:49.486Z,78.91
2023-04-08T00:36:11.681Z,78.62
2023-04-08T00:41:36.422Z,78.36
2023-04-08T00:46:57.954Z,78.32
2023-04-08T00:52:20.078Z,78.34
2023-04-08T00:57:42.206Z,78.42
2023-04-08T01:03:07.426Z,78.39
2023-04-08T01:08:31.607Z,78.43
2023-04-08T01:13:55.642Z,78.01
2023-04-08T01:19:25.663Z,77.92
2023-04-08T01:24:49.017Z,77.95
2023-04-08T01:30:12.405Z,77.68
2023-04-08T01:35:34.552Z,77.35
2023-04-08T01:40:57.315Z,76.94
2023-04-08T01:46:19.652Z,76.84
2023-04-08T01:51:41.381Z,76.82
2023-04-08T01:57:07.042Z,76.97
2023-04-08T02:02:30.446Z,76.86
2023-04-08T02:07:52.986Z,76.84
2023-04-08T02:13:16.127Z,76.88
2023-04-08T02:18:40.254Z,76.68
2023-04-08T02:24:06.133Z,76.84
2023-04-08T02:29:30.636Z,76.87
2023-04-08T02:34:52.566Z,76.16
2023-04-08T02:40:30.515Z,76.80
2023-04-08T02:45:53.132Z,76.69
2023-04-08T02:51:14.799Z,76.56
2023-04-08T02:56:36.826Z,77.00
2023-04-08T03:01:58.933Z,76.63
2023-04-08T03:07:20.915Z,77.05
2023-04-08T03:12:42.820Z,77.04
2023-04-08T03:18:04.794Z,76.70
2023-04-08T03:23:27.101Z,77.33
2023-04-08T03:28:49.343Z,77.27
2023-04-08T03:34:11.954Z,77.24
2023-04-08T03:39:33.978Z,77.55
2023-04-08T03:44:55.509Z,77.67
2023-04-08T03:50:17.334Z,77.46
2023-04-08T03:55:39.966Z,77.40
2023-04-08T04:01:01.794Z,77.62
2023-04-08T04:06:23.920Z,77.52
2023-04-08T04:11:45.849Z,77.93
2023-04-08T04:17:07.689Z,77.43
2023-04-08T04:22:29.672Z,77.70
2023-04-08T04:27:51.242Z,77.56
2023-04-08T04:33:12.973Z,77.51
2023-04-08T04:38:34.892Z,76.76
2023-04-08T04:43:56.937Z,76.60
2023-04-08T04:49:18.750Z,76.28
2023-04-08T04:54:40.980Z,76.44
2023-04-08T05:00:05.885Z,76.21
2023-04-08T05:05:28.196Z,76.40
2023-04-08T05:10:52.797Z,76.39
2023-04-08T05:16:14.458Z,76.07
2023-04-08T05:21:36.559Z,76.07
2023-04-08T05:26:58.389Z,76.33
2023-04-08T05:32:20.829Z,76.27
2023-04-08T05:37:43.150Z,76.29
2023-04-08T05:43:05.918Z,76.18
2023-04-08T05:48:27.814Z,76.24
2023-04-08T05:53:49.667Z,76.05
2023-04-08T05:59:11.666Z,75.97
2023-04-08T06:04:33.856Z,76.17
2023-04-08T06:09:56.021Z,75.45
2023-04-08T06:15:17.852Z,75.15
2023-04-08T06:20:39.280Z,74.78
2023-04-08T06:26:00.902Z,74.73
2023-04-08T06:31:22.776Z,74.10
2023-04-08T06:36:44.761Z,73.94
2023-04-08T06:42:06.700Z,73.33
2023-04-08T06:47:49.413Z,72.79
2023-04-08T06:53:11.224Z,71.69
2023-04-08T06:58:32.855Z,71.06
2023-04-08T07:03:55.004Z,70.63
2023-04-08T07:09:16.921Z,69.99
2023-04-08T07:14:38.842Z,69.62
2023-04-08T07:20:00.450Z,69.18
2023-04-08T07:25:25.413Z,68.63
2023-04-08T07:30:47.750Z,68.35
2023-04-08T07:36:10.784Z,68.99
2023-04-08T07:41:32.603Z,67.64
2023-04-08T07:46:54.338Z,67.35
2023-04-08T07:52:16.708Z,67.34
2023-04-08T07:57:41.712Z,67.63
2023-04-08T08:03:04.001Z,66.31
2023-04-08T08:08:25.763Z,65.68
2023-04-08T08:13:47.530Z,65.21
2023-04-08T08:19:11.054Z,65.26
2023-04-08T08:24:32.754Z,64.49
2023-04-08T08:29:54.815Z,63.19
2023-04-08T08:35:16.829Z,62.43
2023-04-08T08:40:38.656Z,61.72
2023-04-08T08:46:00.777Z,61.08
2023-04-08T08:51:22.604Z,60.13
2023-04-08T08:56:44.472Z,59.50
2023-04-08T09:02:24.379Z,59.62
2023-04-08T09:07:49.970Z,59.06
2023-04-08T09:13:12.061Z,59.64
2023-04-08T09:18:34.092Z,59.84
2023-04-08T09:23:56.060Z,59.38
2023-04-08T09:29:25.616Z,58.74
2023-04-08T09:34:51.168Z,58.31
2023-04-08T09:40:14.185Z,58.36
2023-04-08T09:45:36.877Z,57.91
2023-04-08T09:51:00.222Z,57.92
2023-04-08T09:56:22.587Z,57.46
2023-04-08T10:01:51.395Z,57.37
2023-04-08T10:07:14.372Z,56.69
2023-04-08T10:12:36.549Z,56.13
2023-04-08T10:18:07.111Z,54.48
2023-04-08T10:23:56.533Z,53.86
2023-04-08T10:29:21.890Z,53.69
2023-04-08T10:34:52.792Z,52.80
2023-04-08T10:40:20.743Z,53.03
2023-04-08T10:45:44.726Z,52.92
2023-04-08T10:51:07.917Z,52.96
2023-04-08T10:56:29.948Z,53.10
2023-04-08T11:01:52.524Z,52.84
2023-04-08T11:07:15.808Z,52.03
2023-04-08T11:12:38.948Z,52.63
2023-04-08T11:18:00.878Z,51.83
2023-04-08T11:23:23.105Z,51.19
2023-04-08T11:28:45.944Z,51.59
2023-04-08T11:34:08.574Z,50.79
2023-04-08T11:39:30.993Z,51.36
2023-04-08T11:44:53.297Z,51.12
2023-04-08T11:50:25.545Z,51.14
2023-04-08T11:55:50.447Z,51.46
2023-04-08T12:01:12.861Z,51.44
2023-04-08T12:06:34.692Z,51.71
2023-04-08T12:11:57.821Z,52.32
2023-04-08T12:17:19.551Z,52.43
2023-04-08T12:22:41.583Z,52.88
2023-04-08T12:28:03.310Z,53.06
2023-04-08T12:33:25.421Z,53.94
2023-04-08T12:38:47.375Z,54.42
2023-04-08T12:44:09.005Z,55.47
2023-04-08T12:49:30.983Z,56.27
2023-04-08T12:54:56.375Z,56.99
2023-04-08T13:00:18.207Z,57.45
2023-04-08T13:05:43.672Z,58.43
2023-04-08T13:11:05.790Z,58.88
2023-04-08T13:16:27.573Z,58.78
2023-04-08T13:21:49.323Z,59.10
2023-04-08T13:27:11.580Z,59.57
2023-04-08T13:32:33.610Z,60.03
2023-04-08T13:37:55.833Z,60.38
2023-04-08T13:43:17.348Z,61.19
2023-04-08T13:48:39.182Z,62.02
2023-04-08T13:54:03.555Z,63.02
2023-04-08T13:59:25.467Z,63.84
2023-04-08T14:04:47.735Z,64.50
2023-04-08T14:10:11.610Z,64.52
2023-04-08T14:15:33.250Z,64.87
2023-04-08T14:20:55.048Z,65.34
2023-04-08T14:26:17.128Z,65.79
2023-04-08T14:31:39.129Z,65.95
2023-04-08T14:37:01.164Z,65.88
2023-04-08T14:42:23.187Z,66.09
2023-04-08T14:47:46.160Z,66.11
2023-04-08T14:53:08.470Z,66.26
2023-04-08T14:58:30.578Z,66.08
2023-04-08T15:03:52.244Z,66.25
2023-04-08T15:09:13.994Z,66.08
2023-04-08T15:14:35.761Z,65.82
2023-04-08T15:20:00.904Z,65.76
2023-04-08T15:25:23.033Z,65.62
2023-04-08T15:30:44.994Z,65.10
2023-04-08T15:36:07.881Z,65.60
2023-04-08T15:41:30.125Z,65.06
2023-04-08T15:46:52.183Z,65.34
2023-04-08T15:52:14.392Z,65.39
2023-04-08T15:57:37.213Z,65.75
2023-04-08T16:03:01.737Z,65.50
2023-04-08T16:08:23.967Z,65.81
2023-04-08T16:13:46.435Z,66.00
2023-04-08T16:19:08.345Z,65.90
2023-04-08T16:24:36.682Z,65.63
2023-04-08T16:29:58.587Z,65.62
2023-04-08T16:35:22.872Z,65.64
2023-04-08T16:40:44.996Z,65.29
2023-04-08T16:46:19.193Z,65.56
2023-04-08T16:51:43.706Z,65.50
2023-04-08T16:57:05.993Z,65.05
2023-04-08T17:02:27.684Z,65.30
2023-04-08T17:07:49.719Z,65.35
2023-04-08T17:13:14.235Z,65.50
2023-04-08T17:18:37.046Z,65.45
2023-04-08T17:23:58.999Z,65.88
2023-04-08T17:29:23.740Z,65.83
2023-04-08T17:34:45.578Z,66.08
2023-04-08T17:40:08.139Z,66.01
2023-04-08T17:45:30.232Z,66.39
2023-04-08T17:50:59.617Z,66.34
2023-04-08T17:56:27.444Z,66.49
2023-04-08T18:01:51.150Z,66.33
2023-04-08T18:07:15.912Z,66.48
2023-04-08T18:12:38.059Z,66.61
2023-04-08T18:17:59.826Z,66.96
2023-04-08T18:23:22.306Z,67.10
2023-04-08T18:28:44.730Z,67.30
2023-04-08T18:34:06.566Z,67.32
2023-04-08T18:39:28.412Z,67.74
2023-04-08T18:44:50.314Z,67.88
2023-04-08T18:50:12.448Z,67.96
2023-04-08T18:55:38.900Z,68.21
2023-04-08T19:01:00.624Z,68.75
2023-04-08T19:06:26.315Z,69.04
2023-04-08T19:11:48.703Z,69.18
2023-04-08T19:17:11.328Z,69.71
2023-04-08T19:22:33.569Z,69.78
2023-04-08T19:27:56.086Z,70.63
2023-04-08T19:33:23.937Z,70.75
2023-04-08T19:38:47.172Z,71.22
2023-04-08T19:44:09.450Z,72.12
2023-04-08T19:49:31.517Z,71.87
2023-04-08T19:54:53.679Z,72.43
2023-04-08T20:00:16.591Z,72.21
2023-04-08T20:05:38.899Z,71.93
2023-04-08T20:11:03.468Z,72.08
2023-04-08T20:16:27.171Z,72.14
2023-04-08T20:21:50.035Z,72.53
2023-04-08T20:27:14.181Z,72.71
2023-04-08T20:32:36.463Z,73.03
2023-04-08T20:37:58.639Z,73.16
2023-04-08T20:43:20.562Z,73.55
2023-04-08T20:48:42.253Z,74.06
2023-04-08T20:54:05.118Z,73.85
2023-04-08T20:59:27.352Z,73.58
2023-04-08T21:04:49.180Z,73.69
2023-04-08T21:10:12.579Z,73.44
2023-04-08T21:15:34.443Z,73.39
2023-04-08T21:20:56.876Z,73.21
2023-04-08T21:26:18.720Z,73.36
2023-04-08T21:31:41.277Z,74.14
2023-04-08T21:37:03.474Z,74.15
2023-04-08T21:42:26.507Z,74.38
2023-04-08T21:47:50.403Z,74.40
2023-04-08T21:53:12.868Z,74.82
2023-04-08T21:58:37.908Z,75.18
2023-04-08T22:04:00.059Z,75.31
2023-04-08T22:09:22.568Z,75.51
2023-04-08T22:14:44.615Z,76.05
2023-04-08T22:20:06.932Z,75.78
2023-04-08T22:25:28.870Z,75.66
2023-04-08T22:30:50.911Z,76.15
2023-04-08T22:36:12.792Z,75.66
2023-04-08T22:41:34.723Z,75.87
2023-04-08T22:46:56.886Z,75.68
2023-04-08T22:52:18.707Z,75.03
2023-04-08T22:57:40.942Z,74.80
2023-04-08T23:03:05.025Z,74.98
2023-04-08T23:08:27.449Z,75.23
2023-04-08T23:13:49.307Z,74.60
2023-04-08T23:19:11.965Z,74.90
2023-04-08T23:24:34.593Z,74.99
2023-04-08T23:29:56.622Z,75.14
2023-04-08T23:35:18.679Z,75.04
2023-04-08T23:40:40.698Z,75.77
2023-04-08T23:46:02.511Z,76.23
2023-04-08T23:51:24.653Z,76.15
2023-04-08T23:56:46.480Z,76.07
